<?xml version="1.0" encoding="UTF-8" standalone="no" ?>
<gpx xmlns="http://www.topografix.com/GPX/1/1" xmlns:xsi="http://www.w3.org/2001/XMLSchema-instance" xsi:schemaLocation="http://www.topografix.com/GPX/1/1 http://www.topografix.com/GPX/1/1/gpx.xsd" version="1.1" creator="VisuGPX - https://www.visugpx.com">
  <metadata>
    <name>SAINTE VICTOIRE</name>
    <desc><![CDATA[Parcours sportif.]]></desc>
  </metadata>
  <trk>
    <name><![CDATA[2012-03-28-02]]></name>
    <trkseg>
      <trkpt lat="43.53614" lon="5.57934">
        <ele>705.7</ele>
        <time>2012-03-28T13:43:13Z</time>
      </trkpt>
      <trkpt lat="43.53622" lon="5.57933">
        <ele>711.2</ele>
        <time>2012-03-28T13:44:34Z</time>
      </trkpt>
      <trkpt lat="43.53628" lon="5.57943">
        <ele>729.7</ele>
        <time>2012-03-28T13:47:01Z</time>
      </trkpt>
      <trkpt lat="43.53634" lon="5.5795">
        <ele>728.2</ele>
        <time>2012-03-28T13:47:10Z</time>
      </trkpt>
      <trkpt lat="43.53642" lon="5.57944">
        <ele>719.2</ele>
        <time>2012-03-28T13:47:22Z</time>
      </trkpt>
      <trkpt lat="43.53645" lon="5.57933">
        <ele>714</ele>
        <time>2012-03-28T13:47:30Z</time>
      </trkpt>
      <trkpt lat="43.5365" lon="5.57923">
        <ele>708</ele>
        <time>2012-03-28T13:47:39Z</time>
      </trkpt>
      <trkpt lat="43.53657" lon="5.57916">
        <ele>706.7</ele>
        <time>2012-03-28T13:47:48Z</time>
      </trkpt>
      <trkpt lat="43.53661" lon="5.57907">
        <ele>702.9</ele>
        <time>2012-03-28T13:47:59Z</time>
      </trkpt>
      <trkpt lat="43.53668" lon="5.579">
        <ele>701.4</ele>
        <time>2012-03-28T13:48:07Z</time>
      </trkpt>
      <trkpt lat="43.53677" lon="5.57897">
        <ele>699.9</ele>
        <time>2012-03-28T13:48:14Z</time>
      </trkpt>
      <trkpt lat="43.53685" lon="5.57894">
        <ele>697.7</ele>
        <time>2012-03-28T13:48:21Z</time>
      </trkpt>
      <trkpt lat="43.53693" lon="5.57889">
        <ele>695.2</ele>
        <time>2012-03-28T13:48:29Z</time>
      </trkpt>
      <trkpt lat="43.53701" lon="5.57884">
        <ele>690.7</ele>
        <time>2012-03-28T13:48:38Z</time>
      </trkpt>
      <trkpt lat="43.53708" lon="5.57878">
        <ele>687.7</ele>
        <time>2012-03-28T13:48:46Z</time>
      </trkpt>
      <trkpt lat="43.53715" lon="5.5787">
        <ele>684.4</ele>
        <time>2012-03-28T13:48:54Z</time>
      </trkpt>
      <trkpt lat="43.53722" lon="5.57865">
        <ele>685.2</ele>
        <time>2012-03-28T13:49:01Z</time>
      </trkpt>
      <trkpt lat="43.53729" lon="5.57861">
        <ele>684.9</ele>
        <time>2012-03-28T13:49:06Z</time>
      </trkpt>
      <trkpt lat="43.53737" lon="5.57855">
        <ele>685.2</ele>
        <time>2012-03-28T13:49:12Z</time>
      </trkpt>
      <trkpt lat="43.53743" lon="5.57848">
        <ele>684.5</ele>
        <time>2012-03-28T13:49:19Z</time>
      </trkpt>
      <trkpt lat="43.53749" lon="5.57838">
        <ele>684</ele>
        <time>2012-03-28T13:49:26Z</time>
      </trkpt>
      <trkpt lat="43.53753" lon="5.57829">
        <ele>683.4</ele>
        <time>2012-03-28T13:49:34Z</time>
      </trkpt>
      <trkpt lat="43.53759" lon="5.5782">
        <ele>682</ele>
        <time>2012-03-28T13:49:41Z</time>
      </trkpt>
      <trkpt lat="43.53765" lon="5.57813">
        <ele>683</ele>
        <time>2012-03-28T13:49:47Z</time>
      </trkpt>
      <trkpt lat="43.53772" lon="5.57806">
        <ele>681.9</ele>
        <time>2012-03-28T13:49:54Z</time>
      </trkpt>
      <trkpt lat="43.53778" lon="5.57798">
        <ele>680.2</ele>
        <time>2012-03-28T13:50:01Z</time>
      </trkpt>
      <trkpt lat="43.53785" lon="5.57792">
        <ele>676.2</ele>
        <time>2012-03-28T13:50:07Z</time>
      </trkpt>
      <trkpt lat="43.53793" lon="5.57787">
        <ele>675.9</ele>
        <time>2012-03-28T13:50:15Z</time>
      </trkpt>
      <trkpt lat="43.53801" lon="5.57783">
        <ele>675.4</ele>
        <time>2012-03-28T13:50:22Z</time>
      </trkpt>
      <trkpt lat="43.53808" lon="5.5778">
        <ele>675.2</ele>
        <time>2012-03-28T13:50:28Z</time>
      </trkpt>
      <trkpt lat="43.53816" lon="5.57776">
        <ele>675.5</ele>
        <time>2012-03-28T13:50:34Z</time>
      </trkpt>
      <trkpt lat="43.53824" lon="5.57774">
        <ele>674.7</ele>
        <time>2012-03-28T13:50:39Z</time>
      </trkpt>
      <trkpt lat="43.53833" lon="5.57772">
        <ele>674</ele>
        <time>2012-03-28T13:50:46Z</time>
      </trkpt>
      <trkpt lat="43.53841" lon="5.57769">
        <ele>673</ele>
        <time>2012-03-28T13:50:52Z</time>
      </trkpt>
      <trkpt lat="43.53848" lon="5.57765">
        <ele>670.9</ele>
        <time>2012-03-28T13:50:59Z</time>
      </trkpt>
      <trkpt lat="43.53856" lon="5.5776">
        <ele>667.5</ele>
        <time>2012-03-28T13:51:07Z</time>
      </trkpt>
      <trkpt lat="43.53865" lon="5.57757">
        <ele>665.9</ele>
        <time>2012-03-28T13:51:17Z</time>
      </trkpt>
      <trkpt lat="43.53873" lon="5.57754">
        <ele>662.9</ele>
        <time>2012-03-28T13:51:28Z</time>
      </trkpt>
      <trkpt lat="43.53881" lon="5.5775">
        <ele>659.2</ele>
        <time>2012-03-28T13:51:36Z</time>
      </trkpt>
      <trkpt lat="43.53889" lon="5.57748">
        <ele>659.4</ele>
        <time>2012-03-28T13:51:42Z</time>
      </trkpt>
      <trkpt lat="43.53896" lon="5.57743">
        <ele>657.4</ele>
        <time>2012-03-28T13:51:50Z</time>
      </trkpt>
      <trkpt lat="43.53904" lon="5.57738">
        <ele>655.4</ele>
        <time>2012-03-28T13:51:59Z</time>
      </trkpt>
      <trkpt lat="43.53913" lon="5.57737">
        <ele>654.5</ele>
        <time>2012-03-28T13:52:08Z</time>
      </trkpt>
      <trkpt lat="43.53922" lon="5.57735">
        <ele>654</ele>
        <time>2012-03-28T13:52:16Z</time>
      </trkpt>
      <trkpt lat="43.5393" lon="5.57733">
        <ele>650.5</ele>
        <time>2012-03-28T13:52:24Z</time>
      </trkpt>
      <trkpt lat="43.53938" lon="5.57732">
        <ele>648.5</ele>
        <time>2012-03-28T13:52:33Z</time>
      </trkpt>
      <trkpt lat="43.53946" lon="5.57731">
        <ele>647.9</ele>
        <time>2012-03-28T13:52:41Z</time>
      </trkpt>
      <trkpt lat="43.53955" lon="5.57729">
        <ele>646</ele>
        <time>2012-03-28T13:52:48Z</time>
      </trkpt>
      <trkpt lat="43.53963" lon="5.57726">
        <ele>645</ele>
        <time>2012-03-28T13:52:56Z</time>
      </trkpt>
      <trkpt lat="43.53971" lon="5.57723">
        <ele>644.2</ele>
        <time>2012-03-28T13:53:04Z</time>
      </trkpt>
      <trkpt lat="43.53979" lon="5.57719">
        <ele>642</ele>
        <time>2012-03-28T13:53:13Z</time>
      </trkpt>
      <trkpt lat="43.53988" lon="5.57716">
        <ele>641</ele>
        <time>2012-03-28T13:53:20Z</time>
      </trkpt>
      <trkpt lat="43.53996" lon="5.57716">
        <ele>639.7</ele>
        <time>2012-03-28T13:53:29Z</time>
      </trkpt>
      <trkpt lat="43.54005" lon="5.57712">
        <ele>637.5</ele>
        <time>2012-03-28T13:53:38Z</time>
      </trkpt>
      <trkpt lat="43.54013" lon="5.5771">
        <ele>636.9</ele>
        <time>2012-03-28T13:53:46Z</time>
      </trkpt>
      <trkpt lat="43.54021" lon="5.57706">
        <ele>635.7</ele>
        <time>2012-03-28T13:53:54Z</time>
      </trkpt>
      <trkpt lat="43.54029" lon="5.57706">
        <ele>634.5</ele>
        <time>2012-03-28T13:54:01Z</time>
      </trkpt>
      <trkpt lat="43.54038" lon="5.57705">
        <ele>633.2</ele>
        <time>2012-03-28T13:54:10Z</time>
      </trkpt>
      <trkpt lat="43.54047" lon="5.57706">
        <ele>633</ele>
        <time>2012-03-28T13:54:18Z</time>
      </trkpt>
      <trkpt lat="43.54056" lon="5.57705">
        <ele>631.5</ele>
        <time>2012-03-28T13:54:27Z</time>
      </trkpt>
      <trkpt lat="43.54064" lon="5.57704">
        <ele>627.5</ele>
        <time>2012-03-28T13:54:35Z</time>
      </trkpt>
      <trkpt lat="43.54072" lon="5.57704">
        <ele>624.7</ele>
        <time>2012-03-28T13:54:42Z</time>
      </trkpt>
      <trkpt lat="43.54081" lon="5.57702">
        <ele>622.9</ele>
        <time>2012-03-28T13:54:52Z</time>
      </trkpt>
      <trkpt lat="43.54088" lon="5.577">
        <ele>622.9</ele>
        <time>2012-03-28T13:54:58Z</time>
      </trkpt>
      <trkpt lat="43.54096" lon="5.57694">
        <ele>621</ele>
        <time>2012-03-28T13:55:06Z</time>
      </trkpt>
      <trkpt lat="43.54104" lon="5.57694">
        <ele>618.7</ele>
        <time>2012-03-28T13:55:13Z</time>
      </trkpt>
      <trkpt lat="43.54111" lon="5.57688">
        <ele>614.2</ele>
        <time>2012-03-28T13:55:25Z</time>
      </trkpt>
      <trkpt lat="43.54119" lon="5.57682">
        <ele>611.5</ele>
        <time>2012-03-28T13:55:36Z</time>
      </trkpt>
      <trkpt lat="43.54127" lon="5.57682">
        <ele>608.4</ele>
        <time>2012-03-28T13:55:47Z</time>
      </trkpt>
      <trkpt lat="43.54135" lon="5.57688">
        <ele>608.7</ele>
        <time>2012-03-28T13:55:56Z</time>
      </trkpt>
      <trkpt lat="43.54143" lon="5.5769">
        <ele>604</ele>
        <time>2012-03-28T13:56:05Z</time>
      </trkpt>
      <trkpt lat="43.54152" lon="5.57694">
        <ele>602.7</ele>
        <time>2012-03-28T13:56:15Z</time>
      </trkpt>
      <trkpt lat="43.54158" lon="5.57702">
        <ele>604.9</ele>
        <time>2012-03-28T13:56:27Z</time>
      </trkpt>
      <trkpt lat="43.54164" lon="5.57709">
        <ele>608.5</ele>
        <time>2012-03-28T13:56:36Z</time>
      </trkpt>
      <trkpt lat="43.54172" lon="5.57708">
        <ele>605</ele>
        <time>2012-03-28T13:56:48Z</time>
      </trkpt>
      <trkpt lat="43.5418" lon="5.57703">
        <ele>599.4</ele>
        <time>2012-03-28T13:56:58Z</time>
      </trkpt>
      <trkpt lat="43.54185" lon="5.57694">
        <ele>595.5</ele>
        <time>2012-03-28T13:57:05Z</time>
      </trkpt>
      <trkpt lat="43.5419" lon="5.57685">
        <ele>591.4</ele>
        <time>2012-03-28T13:57:12Z</time>
      </trkpt>
      <trkpt lat="43.54194" lon="5.57675">
        <ele>587</ele>
        <time>2012-03-28T13:57:21Z</time>
      </trkpt>
      <trkpt lat="43.54198" lon="5.57665">
        <ele>584.7</ele>
        <time>2012-03-28T13:57:31Z</time>
      </trkpt>
      <trkpt lat="43.54201" lon="5.57654">
        <ele>583</ele>
        <time>2012-03-28T13:57:41Z</time>
      </trkpt>
      <trkpt lat="43.5421" lon="5.57653">
        <ele>579.7</ele>
        <time>2012-03-28T13:57:52Z</time>
      </trkpt>
      <trkpt lat="43.54218" lon="5.57658">
        <ele>576</ele>
        <time>2012-03-28T13:58:01Z</time>
      </trkpt>
      <trkpt lat="43.54225" lon="5.57662">
        <ele>574.5</ele>
        <time>2012-03-28T13:58:10Z</time>
      </trkpt>
      <trkpt lat="43.54232" lon="5.57668">
        <ele>571</ele>
        <time>2012-03-28T13:58:19Z</time>
      </trkpt>
      <trkpt lat="43.54238" lon="5.57675">
        <ele>570.5</ele>
        <time>2012-03-28T13:58:27Z</time>
      </trkpt>
      <trkpt lat="43.54245" lon="5.57683">
        <ele>569.2</ele>
        <time>2012-03-28T13:58:36Z</time>
      </trkpt>
      <trkpt lat="43.54251" lon="5.5769">
        <ele>567.7</ele>
        <time>2012-03-28T13:58:43Z</time>
      </trkpt>
      <trkpt lat="43.54255" lon="5.57701">
        <ele>565.2</ele>
        <time>2012-03-28T13:58:54Z</time>
      </trkpt>
      <trkpt lat="43.54263" lon="5.57704">
        <ele>560.2</ele>
        <time>2012-03-28T13:59:10Z</time>
      </trkpt>
      <trkpt lat="43.5427" lon="5.57696">
        <ele>558.5</ele>
        <time>2012-03-28T13:59:20Z</time>
      </trkpt>
      <trkpt lat="43.54277" lon="5.57688">
        <ele>556.7</ele>
        <time>2012-03-28T13:59:31Z</time>
      </trkpt>
      <trkpt lat="43.54285" lon="5.57682">
        <ele>556</ele>
        <time>2012-03-28T13:59:44Z</time>
      </trkpt>
      <trkpt lat="43.54291" lon="5.5769">
        <ele>552.7</ele>
        <time>2012-03-28T13:59:54Z</time>
      </trkpt>
      <trkpt lat="43.54296" lon="5.57701">
        <ele>544.4</ele>
        <time>2012-03-28T14:00:06Z</time>
      </trkpt>
      <trkpt lat="43.54298" lon="5.57712">
        <ele>536.4</ele>
        <time>2012-03-28T14:00:17Z</time>
      </trkpt>
      <trkpt lat="43.54298" lon="5.57723">
        <ele>533.5</ele>
        <time>2012-03-28T14:00:25Z</time>
      </trkpt>
      <trkpt lat="43.54297" lon="5.57735">
        <ele>536.7</ele>
        <time>2012-03-28T14:00:31Z</time>
      </trkpt>
      <trkpt lat="43.54296" lon="5.57746">
        <ele>536.9</ele>
        <time>2012-03-28T14:00:38Z</time>
      </trkpt>
      <trkpt lat="43.54296" lon="5.57756">
        <ele>535</ele>
        <time>2012-03-28T14:00:45Z</time>
      </trkpt>
      <trkpt lat="43.54297" lon="5.57768">
        <ele>534.2</ele>
        <time>2012-03-28T14:00:52Z</time>
      </trkpt>
      <trkpt lat="43.54293" lon="5.57777">
        <ele>531.7</ele>
        <time>2012-03-28T14:00:58Z</time>
      </trkpt>
      <trkpt lat="43.54288" lon="5.57788">
        <ele>531.5</ele>
        <time>2012-03-28T14:01:05Z</time>
      </trkpt>
      <trkpt lat="43.54284" lon="5.57798">
        <ele>529.9</ele>
        <time>2012-03-28T14:01:13Z</time>
      </trkpt>
      <trkpt lat="43.54285" lon="5.5781">
        <ele>530.4</ele>
        <time>2012-03-28T14:01:23Z</time>
      </trkpt>
      <trkpt lat="43.54284" lon="5.57822">
        <ele>541.5</ele>
        <time>2012-03-28T14:01:34Z</time>
      </trkpt>
      <trkpt lat="43.54284" lon="5.5781">
        <ele>532.7</ele>
        <time>2012-03-28T14:04:02Z</time>
      </trkpt>
      <trkpt lat="43.54292" lon="5.57805">
        <ele>530.2</ele>
        <time>2012-03-28T14:06:01Z</time>
      </trkpt>
      <trkpt lat="43.543" lon="5.57805">
        <ele>528.9</ele>
        <time>2012-03-28T14:06:10Z</time>
      </trkpt>
      <trkpt lat="43.54309" lon="5.57803">
        <ele>527.2</ele>
        <time>2012-03-28T14:06:18Z</time>
      </trkpt>
      <trkpt lat="43.54317" lon="5.578">
        <ele>524.9</ele>
        <time>2012-03-28T14:06:27Z</time>
      </trkpt>
      <trkpt lat="43.54325" lon="5.57797">
        <ele>523.7</ele>
        <time>2012-03-28T14:06:36Z</time>
      </trkpt>
      <trkpt lat="43.54331" lon="5.57791">
        <ele>521.7</ele>
        <time>2012-03-28T14:06:43Z</time>
      </trkpt>
      <trkpt lat="43.54339" lon="5.57785">
        <ele>519</ele>
        <time>2012-03-28T14:06:50Z</time>
      </trkpt>
      <trkpt lat="43.54347" lon="5.57783">
        <ele>515.9</ele>
        <time>2012-03-28T14:06:58Z</time>
      </trkpt>
      <trkpt lat="43.54355" lon="5.57779">
        <ele>513.7</ele>
        <time>2012-03-28T14:07:06Z</time>
      </trkpt>
      <trkpt lat="43.54363" lon="5.57776">
        <ele>511.8</ele>
        <time>2012-03-28T14:07:13Z</time>
      </trkpt>
      <trkpt lat="43.54371" lon="5.57773">
        <ele>509.6</ele>
        <time>2012-03-28T14:07:21Z</time>
      </trkpt>
      <trkpt lat="43.5438" lon="5.57771">
        <ele>507.3</ele>
        <time>2012-03-28T14:07:30Z</time>
      </trkpt>
      <trkpt lat="43.54388" lon="5.57767">
        <ele>505.7</ele>
        <time>2012-03-28T14:07:38Z</time>
      </trkpt>
      <trkpt lat="43.54397" lon="5.57764">
        <ele>504.2</ele>
        <time>2012-03-28T14:07:46Z</time>
      </trkpt>
      <trkpt lat="43.54405" lon="5.57762">
        <ele>504</ele>
        <time>2012-03-28T14:07:52Z</time>
      </trkpt>
      <trkpt lat="43.54412" lon="5.57759">
        <ele>502.7</ele>
        <time>2012-03-28T14:07:58Z</time>
      </trkpt>
      <trkpt lat="43.5442" lon="5.57756">
        <ele>501.7</ele>
        <time>2012-03-28T14:08:05Z</time>
      </trkpt>
      <trkpt lat="43.54428" lon="5.57753">
        <ele>500.2</ele>
        <time>2012-03-28T14:08:12Z</time>
      </trkpt>
      <trkpt lat="43.54435" lon="5.57749">
        <ele>499.2</ele>
        <time>2012-03-28T14:08:18Z</time>
      </trkpt>
      <trkpt lat="43.54442" lon="5.57743">
        <ele>498.6</ele>
        <time>2012-03-28T14:08:25Z</time>
      </trkpt>
      <trkpt lat="43.54449" lon="5.57737">
        <ele>498.5</ele>
        <time>2012-03-28T14:08:32Z</time>
      </trkpt>
      <trkpt lat="43.54458" lon="5.57738">
        <ele>497.2</ele>
        <time>2012-03-28T14:08:39Z</time>
      </trkpt>
      <trkpt lat="43.54467" lon="5.57739">
        <ele>494.5</ele>
        <time>2012-03-28T14:08:48Z</time>
      </trkpt>
      <trkpt lat="43.54475" lon="5.57737">
        <ele>493.7</ele>
        <time>2012-03-28T14:08:54Z</time>
      </trkpt>
      <trkpt lat="43.54483" lon="5.57733">
        <ele>491.5</ele>
        <time>2012-03-28T14:09:02Z</time>
      </trkpt>
      <trkpt lat="43.54491" lon="5.5773">
        <ele>491.2</ele>
        <time>2012-03-28T14:09:09Z</time>
      </trkpt>
      <trkpt lat="43.54499" lon="5.57729">
        <ele>490.1</ele>
        <time>2012-03-28T14:09:17Z</time>
      </trkpt>
      <trkpt lat="43.54507" lon="5.57725">
        <ele>488.6</ele>
        <time>2012-03-28T14:09:24Z</time>
      </trkpt>
      <trkpt lat="43.54515" lon="5.57728">
        <ele>486.2</ele>
        <time>2012-03-28T14:09:32Z</time>
      </trkpt>
      <trkpt lat="43.54523" lon="5.57731">
        <ele>483.2</ele>
        <time>2012-03-28T14:09:40Z</time>
      </trkpt>
      <trkpt lat="43.54531" lon="5.57735">
        <ele>480.3</ele>
        <time>2012-03-28T14:09:48Z</time>
      </trkpt>
      <trkpt lat="43.54539" lon="5.57736">
        <ele>479.8</ele>
        <time>2012-03-28T14:09:54Z</time>
      </trkpt>
      <trkpt lat="43.54548" lon="5.57738">
        <ele>479.2</ele>
        <time>2012-03-28T14:10:01Z</time>
      </trkpt>
      <trkpt lat="43.54556" lon="5.57738">
        <ele>475.2</ele>
        <time>2012-03-28T14:10:09Z</time>
      </trkpt>
      <trkpt lat="43.54564" lon="5.57739">
        <ele>474</ele>
        <time>2012-03-28T14:10:16Z</time>
      </trkpt>
      <trkpt lat="43.54572" lon="5.57737">
        <ele>473</ele>
        <time>2012-03-28T14:10:22Z</time>
      </trkpt>
      <trkpt lat="43.5458" lon="5.57732">
        <ele>471.8</ele>
        <time>2012-03-28T14:10:30Z</time>
      </trkpt>
      <trkpt lat="43.54588" lon="5.57733">
        <ele>471.8</ele>
        <time>2012-03-28T14:10:36Z</time>
      </trkpt>
      <trkpt lat="43.54596" lon="5.57736">
        <ele>470.3</ele>
        <time>2012-03-28T14:10:43Z</time>
      </trkpt>
      <trkpt lat="43.54605" lon="5.57734">
        <ele>468.2</ele>
        <time>2012-03-28T14:10:51Z</time>
      </trkpt>
      <trkpt lat="43.54612" lon="5.57731">
        <ele>467.6</ele>
        <time>2012-03-28T14:10:57Z</time>
      </trkpt>
      <trkpt lat="43.54618" lon="5.57725">
        <ele>467.1</ele>
        <time>2012-03-28T14:11:03Z</time>
      </trkpt>
      <trkpt lat="43.54624" lon="5.57718">
        <ele>466.7</ele>
        <time>2012-03-28T14:11:09Z</time>
      </trkpt>
      <trkpt lat="43.54632" lon="5.57717">
        <ele>465.7</ele>
        <time>2012-03-28T14:11:16Z</time>
      </trkpt>
      <trkpt lat="43.54641" lon="5.57717">
        <ele>464.6</ele>
        <time>2012-03-28T14:11:23Z</time>
      </trkpt>
      <trkpt lat="43.54648" lon="5.57711">
        <ele>464.7</ele>
        <time>2012-03-28T14:11:30Z</time>
      </trkpt>
      <trkpt lat="43.54654" lon="5.57702">
        <ele>464.7</ele>
        <time>2012-03-28T14:11:37Z</time>
      </trkpt>
      <trkpt lat="43.54662" lon="5.57699">
        <ele>465</ele>
        <time>2012-03-28T14:11:43Z</time>
      </trkpt>
      <trkpt lat="43.54671" lon="5.577">
        <ele>462.7</ele>
        <time>2012-03-28T14:11:51Z</time>
      </trkpt>
      <trkpt lat="43.54679" lon="5.57699">
        <ele>460.1</ele>
        <time>2012-03-28T14:11:59Z</time>
      </trkpt>
      <trkpt lat="43.54687" lon="5.57697">
        <ele>458.7</ele>
        <time>2012-03-28T14:12:06Z</time>
      </trkpt>
      <trkpt lat="43.54695" lon="5.57691">
        <ele>457.7</ele>
        <time>2012-03-28T14:12:13Z</time>
      </trkpt>
      <trkpt lat="43.54703" lon="5.57685">
        <ele>456</ele>
        <time>2012-03-28T14:12:21Z</time>
      </trkpt>
      <trkpt lat="43.54711" lon="5.57681">
        <ele>455.7</ele>
        <time>2012-03-28T14:12:27Z</time>
      </trkpt>
      <trkpt lat="43.54718" lon="5.57686">
        <ele>455</ele>
        <time>2012-03-28T14:12:32Z</time>
      </trkpt>
      <trkpt lat="43.54725" lon="5.57693">
        <ele>454</ele>
        <time>2012-03-28T14:12:38Z</time>
      </trkpt>
      <trkpt lat="43.54731" lon="5.577">
        <ele>452</ele>
        <time>2012-03-28T14:12:44Z</time>
      </trkpt>
      <trkpt lat="43.54738" lon="5.57704">
        <ele>450.8</ele>
        <time>2012-03-28T14:12:50Z</time>
      </trkpt>
      <trkpt lat="43.54745" lon="5.57709">
        <ele>448.7</ele>
        <time>2012-03-28T14:12:56Z</time>
      </trkpt>
      <trkpt lat="43.54752" lon="5.57718">
        <ele>447.5</ele>
        <time>2012-03-28T14:13:02Z</time>
      </trkpt>
      <trkpt lat="43.54757" lon="5.57726">
        <ele>446.1</ele>
        <time>2012-03-28T14:13:08Z</time>
      </trkpt>
      <trkpt lat="43.5476" lon="5.57737">
        <ele>444.7</ele>
        <time>2012-03-28T14:13:15Z</time>
      </trkpt>
      <trkpt lat="43.54758" lon="5.57748">
        <ele>444.7</ele>
        <time>2012-03-28T14:13:22Z</time>
      </trkpt>
      <trkpt lat="43.54757" lon="5.57759">
        <ele>447.1</ele>
        <time>2012-03-28T14:13:27Z</time>
      </trkpt>
      <trkpt lat="43.54755" lon="5.57771">
        <ele>450.7</ele>
        <time>2012-03-28T14:13:32Z</time>
      </trkpt>
      <trkpt lat="43.54753" lon="5.57783">
        <ele>454</ele>
        <time>2012-03-28T14:13:37Z</time>
      </trkpt>
      <trkpt lat="43.54751" lon="5.57793">
        <ele>455.2</ele>
        <time>2012-03-28T14:13:43Z</time>
      </trkpt>
      <trkpt lat="43.54748" lon="5.57804">
        <ele>452.7</ele>
        <time>2012-03-28T14:13:50Z</time>
      </trkpt>
      <trkpt lat="43.54747" lon="5.57815">
        <ele>449.8</ele>
        <time>2012-03-28T14:13:57Z</time>
      </trkpt>
      <trkpt lat="43.5475" lon="5.57826">
        <ele>446.3</ele>
        <time>2012-03-28T14:14:04Z</time>
      </trkpt>
      <trkpt lat="43.54753" lon="5.57836">
        <ele>446.2</ele>
        <time>2012-03-28T14:14:10Z</time>
      </trkpt>
      <trkpt lat="43.54758" lon="5.57846">
        <ele>444.2</ele>
        <time>2012-03-28T14:14:17Z</time>
      </trkpt>
      <trkpt lat="43.54759" lon="5.57858">
        <ele>441.7</ele>
        <time>2012-03-28T14:14:25Z</time>
      </trkpt>
      <trkpt lat="43.5476" lon="5.57871">
        <ele>442.1</ele>
        <time>2012-03-28T14:14:32Z</time>
      </trkpt>
      <trkpt lat="43.54757" lon="5.57882">
        <ele>441.7</ele>
        <time>2012-03-28T14:14:38Z</time>
      </trkpt>
      <trkpt lat="43.54754" lon="5.57893">
        <ele>441.6</ele>
        <time>2012-03-28T14:14:45Z</time>
      </trkpt>
      <trkpt lat="43.54752" lon="5.57902">
        <ele>441.8</ele>
        <time>2012-03-28T14:14:51Z</time>
      </trkpt>
      <trkpt lat="43.54751" lon="5.57914">
        <ele>440.5</ele>
        <time>2012-03-28T14:14:58Z</time>
      </trkpt>
      <trkpt lat="43.54751" lon="5.57925">
        <ele>439.7</ele>
        <time>2012-03-28T14:15:04Z</time>
      </trkpt>
      <trkpt lat="43.54752" lon="5.57937">
        <ele>440.7</ele>
        <time>2012-03-28T14:15:09Z</time>
      </trkpt>
      <trkpt lat="43.54754" lon="5.57948">
        <ele>443.3</ele>
        <time>2012-03-28T14:15:14Z</time>
      </trkpt>
      <trkpt lat="43.5476" lon="5.57956">
        <ele>443.1</ele>
        <time>2012-03-28T14:15:21Z</time>
      </trkpt>
      <trkpt lat="43.54767" lon="5.57963">
        <ele>439.3</ele>
        <time>2012-03-28T14:15:28Z</time>
      </trkpt>
      <trkpt lat="43.54775" lon="5.57968">
        <ele>434.2</ele>
        <time>2012-03-28T14:15:35Z</time>
      </trkpt>
      <trkpt lat="43.54784" lon="5.57968">
        <ele>433.7</ele>
        <time>2012-03-28T14:15:41Z</time>
      </trkpt>
      <trkpt lat="43.54793" lon="5.57966">
        <ele>435.7</ele>
        <time>2012-03-28T14:15:46Z</time>
      </trkpt>
      <trkpt lat="43.54801" lon="5.57962">
        <ele>435.2</ele>
        <time>2012-03-28T14:15:54Z</time>
      </trkpt>
      <trkpt lat="43.54809" lon="5.57961">
        <ele>435.2</ele>
        <time>2012-03-28T14:16:02Z</time>
      </trkpt>
      <trkpt lat="43.54818" lon="5.57963">
        <ele>435.5</ele>
        <time>2012-03-28T14:16:09Z</time>
      </trkpt>
      <trkpt lat="43.54826" lon="5.57961">
        <ele>434.6</ele>
        <time>2012-03-28T14:16:16Z</time>
      </trkpt>
      <trkpt lat="43.54833" lon="5.57959">
        <ele>436.5</ele>
        <time>2012-03-28T14:16:21Z</time>
      </trkpt>
      <trkpt lat="43.54841" lon="5.57956">
        <ele>435.6</ele>
        <time>2012-03-28T14:16:28Z</time>
      </trkpt>
      <trkpt lat="43.54847" lon="5.5795">
        <ele>435.2</ele>
        <time>2012-03-28T14:16:34Z</time>
      </trkpt>
      <trkpt lat="43.54855" lon="5.57946">
        <ele>436.2</ele>
        <time>2012-03-28T14:16:41Z</time>
      </trkpt>
      <trkpt lat="43.54864" lon="5.57946">
        <ele>436.5</ele>
        <time>2012-03-28T14:16:48Z</time>
      </trkpt>
      <trkpt lat="43.54872" lon="5.5795">
        <ele>436.2</ele>
        <time>2012-03-28T14:16:55Z</time>
      </trkpt>
      <trkpt lat="43.5488" lon="5.57951">
        <ele>436.5</ele>
        <time>2012-03-28T14:17:01Z</time>
      </trkpt>
      <trkpt lat="43.54888" lon="5.57951">
        <ele>436.2</ele>
        <time>2012-03-28T14:17:07Z</time>
      </trkpt>
      <trkpt lat="43.54897" lon="5.5795">
        <ele>436.6</ele>
        <time>2012-03-28T14:17:15Z</time>
      </trkpt>
      <trkpt lat="43.54905" lon="5.57952">
        <ele>437</ele>
        <time>2012-03-28T14:17:22Z</time>
      </trkpt>
      <trkpt lat="43.54911" lon="5.57961">
        <ele>432.8</ele>
        <time>2012-03-28T14:17:29Z</time>
      </trkpt>
      <trkpt lat="43.54916" lon="5.57969">
        <ele>428.3</ele>
        <time>2012-03-28T14:17:36Z</time>
      </trkpt>
      <trkpt lat="43.54921" lon="5.57978">
        <ele>425.2</ele>
        <time>2012-03-28T14:17:43Z</time>
      </trkpt>
      <trkpt lat="43.54925" lon="5.57987">
        <ele>424.2</ele>
        <time>2012-03-28T14:17:50Z</time>
      </trkpt>
      <trkpt lat="43.54929" lon="5.57997">
        <ele>423</ele>
        <time>2012-03-28T14:17:57Z</time>
      </trkpt>
      <trkpt lat="43.54932" lon="5.58007">
        <ele>422.2</ele>
        <time>2012-03-28T14:18:04Z</time>
      </trkpt>
      <trkpt lat="43.54936" lon="5.58017">
        <ele>421.5</ele>
        <time>2012-03-28T14:18:12Z</time>
      </trkpt>
      <trkpt lat="43.54941" lon="5.58027">
        <ele>420.1</ele>
        <time>2012-03-28T14:18:21Z</time>
      </trkpt>
      <trkpt lat="43.54946" lon="5.58037">
        <ele>416.7</ele>
        <time>2012-03-28T14:18:32Z</time>
      </trkpt>
      <trkpt lat="43.54951" lon="5.58047">
        <ele>414.1</ele>
        <time>2012-03-28T14:18:40Z</time>
      </trkpt>
      <trkpt lat="43.54956" lon="5.58056">
        <ele>412.3</ele>
        <time>2012-03-28T14:18:50Z</time>
      </trkpt>
      <trkpt lat="43.54962" lon="5.58064">
        <ele>412.6</ele>
        <time>2012-03-28T14:19:00Z</time>
      </trkpt>
      <trkpt lat="43.54967" lon="5.58074">
        <ele>409.3</ele>
        <time>2012-03-28T14:19:09Z</time>
      </trkpt>
      <trkpt lat="43.5497" lon="5.58084">
        <ele>408.5</ele>
        <time>2012-03-28T14:19:16Z</time>
      </trkpt>
      <trkpt lat="43.5497" lon="5.58096">
        <ele>405.3</ele>
        <time>2012-03-28T14:19:24Z</time>
      </trkpt>
      <trkpt lat="43.5497" lon="5.58107">
        <ele>401.8</ele>
        <time>2012-03-28T14:19:32Z</time>
      </trkpt>
      <trkpt lat="43.54971" lon="5.58119">
        <ele>398.7</ele>
        <time>2012-03-28T14:19:41Z</time>
      </trkpt>
      <trkpt lat="43.54974" lon="5.5813">
        <ele>397.1</ele>
        <time>2012-03-28T14:19:49Z</time>
      </trkpt>
      <trkpt lat="43.54977" lon="5.5814">
        <ele>398</ele>
        <time>2012-03-28T14:19:56Z</time>
      </trkpt>
      <trkpt lat="43.5498" lon="5.58151">
        <ele>397.5</ele>
        <time>2012-03-28T14:20:04Z</time>
      </trkpt>
      <trkpt lat="43.54981" lon="5.58163">
        <ele>397</ele>
        <time>2012-03-28T14:20:11Z</time>
      </trkpt>
      <trkpt lat="43.54986" lon="5.58173">
        <ele>395</ele>
        <time>2012-03-28T14:20:19Z</time>
      </trkpt>
      <trkpt lat="43.54994" lon="5.58176">
        <ele>390.6</ele>
        <time>2012-03-28T14:20:27Z</time>
      </trkpt>
      <trkpt lat="43.55" lon="5.58182">
        <ele>389.2</ele>
        <time>2012-03-28T14:20:34Z</time>
      </trkpt>
      <trkpt lat="43.55006" lon="5.5819">
        <ele>387.5</ele>
        <time>2012-03-28T14:20:41Z</time>
      </trkpt>
      <trkpt lat="43.55015" lon="5.58191">
        <ele>382.7</ele>
        <time>2012-03-28T14:20:51Z</time>
      </trkpt>
      <trkpt lat="43.55022" lon="5.58184">
        <ele>379.6</ele>
        <time>2012-03-28T14:21:00Z</time>
      </trkpt>
      <trkpt lat="43.55026" lon="5.58175">
        <ele>377.8</ele>
        <time>2012-03-28T14:21:07Z</time>
      </trkpt>
      <trkpt lat="43.5503" lon="5.58164">
        <ele>378.2</ele>
        <time>2012-03-28T14:21:15Z</time>
      </trkpt>
      <trkpt lat="43.55036" lon="5.58156">
        <ele>376.8</ele>
        <time>2012-03-28T14:21:22Z</time>
      </trkpt>
      <trkpt lat="43.55042" lon="5.5815">
        <ele>375.2</ele>
        <time>2012-03-28T14:21:28Z</time>
      </trkpt>
      <trkpt lat="43.55048" lon="5.58142">
        <ele>373.1</ele>
        <time>2012-03-28T14:21:35Z</time>
      </trkpt>
      <trkpt lat="43.55054" lon="5.58135">
        <ele>372</ele>
        <time>2012-03-28T14:21:42Z</time>
      </trkpt>
      <trkpt lat="43.55063" lon="5.58134">
        <ele>369.7</ele>
        <time>2012-03-28T14:21:52Z</time>
      </trkpt>
      <trkpt lat="43.55068" lon="5.58143">
        <ele>366.3</ele>
        <time>2012-03-28T14:22:00Z</time>
      </trkpt>
      <trkpt lat="43.5507" lon="5.58154">
        <ele>365.5</ele>
        <time>2012-03-28T14:22:07Z</time>
      </trkpt>
      <trkpt lat="43.55069" lon="5.58165">
        <ele>364.6</ele>
        <time>2012-03-28T14:22:13Z</time>
      </trkpt>
      <trkpt lat="43.55068" lon="5.58177">
        <ele>363.7</ele>
        <time>2012-03-28T14:22:22Z</time>
      </trkpt>
      <trkpt lat="43.5506" lon="5.58183">
        <ele>376.7</ele>
        <time>2012-03-28T14:24:22Z</time>
      </trkpt>
      <trkpt lat="43.55062" lon="5.58195">
        <ele>371.5</ele>
        <time>2012-03-28T14:24:57Z</time>
      </trkpt>
      <trkpt lat="43.5506" lon="5.58206">
        <ele>369.3</ele>
        <time>2012-03-28T14:25:08Z</time>
      </trkpt>
      <trkpt lat="43.55059" lon="5.58218">
        <ele>372.1</ele>
        <time>2012-03-28T14:25:16Z</time>
      </trkpt>
      <trkpt lat="43.55056" lon="5.5823">
        <ele>373.7</ele>
        <time>2012-03-28T14:25:24Z</time>
      </trkpt>
      <trkpt lat="43.55053" lon="5.58241">
        <ele>373.5</ele>
        <time>2012-03-28T14:25:32Z</time>
      </trkpt>
      <trkpt lat="43.55051" lon="5.58251">
        <ele>371.7</ele>
        <time>2012-03-28T14:25:39Z</time>
      </trkpt>
      <trkpt lat="43.55052" lon="5.58262">
        <ele>370.8</ele>
        <time>2012-03-28T14:25:46Z</time>
      </trkpt>
      <trkpt lat="43.55056" lon="5.58273">
        <ele>368.2</ele>
        <time>2012-03-28T14:25:54Z</time>
      </trkpt>
      <trkpt lat="43.55062" lon="5.5828">
        <ele>368.2</ele>
        <time>2012-03-28T14:26:02Z</time>
      </trkpt>
      <trkpt lat="43.55067" lon="5.5829">
        <ele>366.6</ele>
        <time>2012-03-28T14:26:10Z</time>
      </trkpt>
      <trkpt lat="43.55071" lon="5.583">
        <ele>364.7</ele>
        <time>2012-03-28T14:26:18Z</time>
      </trkpt>
      <trkpt lat="43.55075" lon="5.58311">
        <ele>364.1</ele>
        <time>2012-03-28T14:26:25Z</time>
      </trkpt>
      <trkpt lat="43.55077" lon="5.58321">
        <ele>362.7</ele>
        <time>2012-03-28T14:26:32Z</time>
      </trkpt>
      <trkpt lat="43.55078" lon="5.58333">
        <ele>360.1</ele>
        <time>2012-03-28T14:26:41Z</time>
      </trkpt>
      <trkpt lat="43.55076" lon="5.58343">
        <ele>356.8</ele>
        <time>2012-03-28T14:26:50Z</time>
      </trkpt>
      <trkpt lat="43.55076" lon="5.58355">
        <ele>353.7</ele>
        <time>2012-03-28T14:26:58Z</time>
      </trkpt>
      <trkpt lat="43.55081" lon="5.58363">
        <ele>350.5</ele>
        <time>2012-03-28T14:27:06Z</time>
      </trkpt>
      <trkpt lat="43.55086" lon="5.58372">
        <ele>348.2</ele>
        <time>2012-03-28T14:27:13Z</time>
      </trkpt>
      <trkpt lat="43.5509" lon="5.58381">
        <ele>354</ele>
        <time>2012-03-28T14:27:20Z</time>
      </trkpt>
      <trkpt lat="43.55097" lon="5.58388">
        <ele>354.6</ele>
        <time>2012-03-28T14:27:28Z</time>
      </trkpt>
      <trkpt lat="43.55104" lon="5.58395">
        <ele>355.2</ele>
        <time>2012-03-28T14:27:39Z</time>
      </trkpt>
      <trkpt lat="43.55102" lon="5.58407">
        <ele>354.1</ele>
        <time>2012-03-28T14:27:48Z</time>
      </trkpt>
      <trkpt lat="43.55102" lon="5.58419">
        <ele>354.6</ele>
        <time>2012-03-28T14:28:02Z</time>
      </trkpt>
      <trkpt lat="43.55101" lon="5.58431">
        <ele>353.7</ele>
        <time>2012-03-28T14:28:36Z</time>
      </trkpt>
      <trkpt lat="43.55108" lon="5.58427">
        <ele>361.7</ele>
        <time>2012-03-28T14:31:11Z</time>
      </trkpt>
      <trkpt lat="43.55117" lon="5.58424">
        <ele>361.7</ele>
        <time>2012-03-28T14:31:20Z</time>
      </trkpt>
      <trkpt lat="43.55125" lon="5.58422">
        <ele>361.2</ele>
        <time>2012-03-28T14:31:29Z</time>
      </trkpt>
      <trkpt lat="43.55134" lon="5.5842">
        <ele>357.2</ele>
        <time>2012-03-28T14:31:37Z</time>
      </trkpt>
      <trkpt lat="43.55142" lon="5.58417">
        <ele>358.2</ele>
        <time>2012-03-28T14:31:44Z</time>
      </trkpt>
      <trkpt lat="43.5515" lon="5.58413">
        <ele>358.2</ele>
        <time>2012-03-28T14:31:52Z</time>
      </trkpt>
      <trkpt lat="43.55157" lon="5.5841">
        <ele>356.7</ele>
        <time>2012-03-28T14:31:59Z</time>
      </trkpt>
      <trkpt lat="43.55166" lon="5.58408">
        <ele>355.5</ele>
        <time>2012-03-28T14:32:06Z</time>
      </trkpt>
      <trkpt lat="43.55174" lon="5.58406">
        <ele>356.7</ele>
        <time>2012-03-28T14:32:14Z</time>
      </trkpt>
      <trkpt lat="43.55183" lon="5.58407">
        <ele>362.2</ele>
        <time>2012-03-28T14:32:25Z</time>
      </trkpt>
      <trkpt lat="43.55189" lon="5.58413">
        <ele>360.8</ele>
        <time>2012-03-28T14:32:34Z</time>
      </trkpt>
      <trkpt lat="43.55194" lon="5.58424">
        <ele>356.1</ele>
        <time>2012-03-28T14:32:42Z</time>
      </trkpt>
      <trkpt lat="43.55198" lon="5.58433">
        <ele>354.5</ele>
        <time>2012-03-28T14:32:50Z</time>
      </trkpt>
      <trkpt lat="43.55203" lon="5.58442">
        <ele>356.2</ele>
        <time>2012-03-28T14:32:58Z</time>
      </trkpt>
      <trkpt lat="43.5521" lon="5.58449">
        <ele>357.6</ele>
        <time>2012-03-28T14:33:06Z</time>
      </trkpt>
      <trkpt lat="43.55218" lon="5.58454">
        <ele>358.7</ele>
        <time>2012-03-28T14:33:13Z</time>
      </trkpt>
      <trkpt lat="43.55226" lon="5.58459">
        <ele>360</ele>
        <time>2012-03-28T14:33:21Z</time>
      </trkpt>
      <trkpt lat="43.55232" lon="5.58468">
        <ele>359.5</ele>
        <time>2012-03-28T14:33:29Z</time>
      </trkpt>
      <trkpt lat="43.55235" lon="5.58478">
        <ele>358.1</ele>
        <time>2012-03-28T14:33:36Z</time>
      </trkpt>
      <trkpt lat="43.55239" lon="5.58489">
        <ele>357.1</ele>
        <time>2012-03-28T14:33:44Z</time>
      </trkpt>
      <trkpt lat="43.55244" lon="5.58498">
        <ele>354.8</ele>
        <time>2012-03-28T14:33:53Z</time>
      </trkpt>
      <trkpt lat="43.55252" lon="5.58498">
        <ele>353</ele>
        <time>2012-03-28T14:34:03Z</time>
      </trkpt>
      <trkpt lat="43.55259" lon="5.58491">
        <ele>351.2</ele>
        <time>2012-03-28T14:34:11Z</time>
      </trkpt>
      <trkpt lat="43.55264" lon="5.58483">
        <ele>353.2</ele>
        <time>2012-03-28T14:34:18Z</time>
      </trkpt>
      <trkpt lat="43.55267" lon="5.58473">
        <ele>352.8</ele>
        <time>2012-03-28T14:34:25Z</time>
      </trkpt>
      <trkpt lat="43.5527" lon="5.58461">
        <ele>356.6</ele>
        <time>2012-03-28T14:34:31Z</time>
      </trkpt>
      <trkpt lat="43.55269" lon="5.58449">
        <ele>355.2</ele>
        <time>2012-03-28T14:34:39Z</time>
      </trkpt>
      <trkpt lat="43.55268" lon="5.58438">
        <ele>354.7</ele>
        <time>2012-03-28T14:34:46Z</time>
      </trkpt>
      <trkpt lat="43.55264" lon="5.58427">
        <ele>355.6</ele>
        <time>2012-03-28T14:34:53Z</time>
      </trkpt>
      <trkpt lat="43.55264" lon="5.58416">
        <ele>356.5</ele>
        <time>2012-03-28T14:34:59Z</time>
      </trkpt>
      <trkpt lat="43.55264" lon="5.58405">
        <ele>356.8</ele>
        <time>2012-03-28T14:35:06Z</time>
      </trkpt>
      <trkpt lat="43.55269" lon="5.58395">
        <ele>358.2</ele>
        <time>2012-03-28T14:35:15Z</time>
      </trkpt>
      <trkpt lat="43.55277" lon="5.5839">
        <ele>357.5</ele>
        <time>2012-03-28T14:35:24Z</time>
      </trkpt>
      <trkpt lat="43.55285" lon="5.58383">
        <ele>358</ele>
        <time>2012-03-28T14:35:32Z</time>
      </trkpt>
      <trkpt lat="43.55291" lon="5.58376">
        <ele>358</ele>
        <time>2012-03-28T14:35:39Z</time>
      </trkpt>
      <trkpt lat="43.553" lon="5.58374">
        <ele>356.8</ele>
        <time>2012-03-28T14:35:48Z</time>
      </trkpt>
      <trkpt lat="43.55301" lon="5.58385">
        <ele>362.8</ele>
        <time>2012-03-28T14:36:33Z</time>
      </trkpt>
      <trkpt lat="43.55298" lon="5.58396">
        <ele>361.2</ele>
        <time>2012-03-28T14:36:42Z</time>
      </trkpt>
      <trkpt lat="43.55297" lon="5.58408">
        <ele>360.3</ele>
        <time>2012-03-28T14:36:49Z</time>
      </trkpt>
      <trkpt lat="43.55295" lon="5.58419">
        <ele>359.3</ele>
        <time>2012-03-28T14:36:57Z</time>
      </trkpt>
      <trkpt lat="43.55294" lon="5.5843">
        <ele>359.2</ele>
        <time>2012-03-28T14:37:03Z</time>
      </trkpt>
      <trkpt lat="43.55295" lon="5.58441">
        <ele>358.7</ele>
        <time>2012-03-28T14:37:09Z</time>
      </trkpt>
      <trkpt lat="43.55297" lon="5.58451">
        <ele>357.7</ele>
        <time>2012-03-28T14:37:16Z</time>
      </trkpt>
      <trkpt lat="43.55301" lon="5.58462">
        <ele>356.7</ele>
        <time>2012-03-28T14:37:21Z</time>
      </trkpt>
      <trkpt lat="43.55304" lon="5.58471">
        <ele>356.8</ele>
        <time>2012-03-28T14:37:27Z</time>
      </trkpt>
      <trkpt lat="43.55307" lon="5.58482">
        <ele>357.5</ele>
        <time>2012-03-28T14:37:33Z</time>
      </trkpt>
      <trkpt lat="43.55309" lon="5.58494">
        <ele>359</ele>
        <time>2012-03-28T14:37:40Z</time>
      </trkpt>
      <trkpt lat="43.5531" lon="5.58506">
        <ele>359.1</ele>
        <time>2012-03-28T14:37:48Z</time>
      </trkpt>
      <trkpt lat="43.55307" lon="5.58517">
        <ele>360.7</ele>
        <time>2012-03-28T14:37:55Z</time>
      </trkpt>
      <trkpt lat="43.55304" lon="5.58528">
        <ele>362.2</ele>
        <time>2012-03-28T14:38:01Z</time>
      </trkpt>
      <trkpt lat="43.55298" lon="5.58535">
        <ele>364.8</ele>
        <time>2012-03-28T14:38:08Z</time>
      </trkpt>
      <trkpt lat="43.55291" lon="5.58541">
        <ele>366.8</ele>
        <time>2012-03-28T14:38:14Z</time>
      </trkpt>
      <trkpt lat="43.55285" lon="5.58548">
        <ele>365.2</ele>
        <time>2012-03-28T14:38:20Z</time>
      </trkpt>
      <trkpt lat="43.55278" lon="5.58553">
        <ele>364.7</ele>
        <time>2012-03-28T14:38:27Z</time>
      </trkpt>
      <trkpt lat="43.5527" lon="5.58555">
        <ele>363.8</ele>
        <time>2012-03-28T14:38:33Z</time>
      </trkpt>
      <trkpt lat="43.55262" lon="5.58556">
        <ele>362.8</ele>
        <time>2012-03-28T14:38:38Z</time>
      </trkpt>
      <trkpt lat="43.55253" lon="5.58557">
        <ele>362.2</ele>
        <time>2012-03-28T14:38:44Z</time>
      </trkpt>
      <trkpt lat="43.55245" lon="5.5856">
        <ele>363.2</ele>
        <time>2012-03-28T14:38:51Z</time>
      </trkpt>
      <trkpt lat="43.55238" lon="5.58562">
        <ele>363.6</ele>
        <time>2012-03-28T14:38:57Z</time>
      </trkpt>
      <trkpt lat="43.55231" lon="5.58566">
        <ele>363.6</ele>
        <time>2012-03-28T14:39:03Z</time>
      </trkpt>
      <trkpt lat="43.55223" lon="5.58571">
        <ele>361.7</ele>
        <time>2012-03-28T14:39:09Z</time>
      </trkpt>
      <trkpt lat="43.55217" lon="5.58579">
        <ele>360.1</ele>
        <time>2012-03-28T14:39:17Z</time>
      </trkpt>
      <trkpt lat="43.55216" lon="5.58592">
        <ele>362.2</ele>
        <time>2012-03-28T14:39:30Z</time>
      </trkpt>
      <trkpt lat="43.5522" lon="5.58581">
        <ele>366</ele>
        <time>2012-03-28T14:39:54Z</time>
      </trkpt>
      <trkpt lat="43.55224" lon="5.5857">
        <ele>369.6</ele>
        <time>2012-03-28T14:40:10Z</time>
      </trkpt>
      <trkpt lat="43.55231" lon="5.58564">
        <ele>365</ele>
        <time>2012-03-28T14:40:47Z</time>
      </trkpt>
      <trkpt lat="43.5524" lon="5.58562">
        <ele>366.2</ele>
        <time>2012-03-28T14:40:55Z</time>
      </trkpt>
      <trkpt lat="43.55247" lon="5.58559">
        <ele>365.2</ele>
        <time>2012-03-28T14:41:01Z</time>
      </trkpt>
      <trkpt lat="43.55255" lon="5.58559">
        <ele>362.2</ele>
        <time>2012-03-28T14:41:06Z</time>
      </trkpt>
      <trkpt lat="43.55263" lon="5.58557">
        <ele>363.2</ele>
        <time>2012-03-28T14:41:12Z</time>
      </trkpt>
      <trkpt lat="43.55271" lon="5.58554">
        <ele>366.5</ele>
        <time>2012-03-28T14:41:19Z</time>
      </trkpt>
      <trkpt lat="43.55279" lon="5.5855">
        <ele>368.8</ele>
        <time>2012-03-28T14:41:25Z</time>
      </trkpt>
      <trkpt lat="43.55287" lon="5.58546">
        <ele>369.8</ele>
        <time>2012-03-28T14:41:32Z</time>
      </trkpt>
      <trkpt lat="43.55293" lon="5.58541">
        <ele>369.8</ele>
        <time>2012-03-28T14:41:37Z</time>
      </trkpt>
      <trkpt lat="43.55299" lon="5.58532">
        <ele>369.1</ele>
        <time>2012-03-28T14:41:44Z</time>
      </trkpt>
      <trkpt lat="43.55305" lon="5.58524">
        <ele>363.8</ele>
        <time>2012-03-28T14:41:50Z</time>
      </trkpt>
      <trkpt lat="43.55308" lon="5.58513">
        <ele>361.7</ele>
        <time>2012-03-28T14:41:58Z</time>
      </trkpt>
      <trkpt lat="43.55307" lon="5.58502">
        <ele>361.7</ele>
        <time>2012-03-28T14:42:05Z</time>
      </trkpt>
      <trkpt lat="43.55305" lon="5.58491">
        <ele>363.7</ele>
        <time>2012-03-28T14:42:10Z</time>
      </trkpt>
      <trkpt lat="43.55301" lon="5.58483">
        <ele>367</ele>
        <time>2012-03-28T14:42:14Z</time>
      </trkpt>
      <trkpt lat="43.55298" lon="5.58473">
        <ele>369.7</ele>
        <time>2012-03-28T14:42:19Z</time>
      </trkpt>
      <trkpt lat="43.55296" lon="5.58463">
        <ele>370.2</ele>
        <time>2012-03-28T14:42:23Z</time>
      </trkpt>
      <trkpt lat="43.55294" lon="5.58453">
        <ele>370.2</ele>
        <time>2012-03-28T14:42:28Z</time>
      </trkpt>
      <trkpt lat="43.55291" lon="5.58443">
        <ele>371.6</ele>
        <time>2012-03-28T14:42:33Z</time>
      </trkpt>
      <trkpt lat="43.5529" lon="5.58431">
        <ele>372.1</ele>
        <time>2012-03-28T14:42:39Z</time>
      </trkpt>
      <trkpt lat="43.55293" lon="5.5842">
        <ele>366.2</ele>
        <time>2012-03-28T14:42:48Z</time>
      </trkpt>
      <trkpt lat="43.55296" lon="5.58409">
        <ele>361.2</ele>
        <time>2012-03-28T14:42:57Z</time>
      </trkpt>
      <trkpt lat="43.55298" lon="5.58399">
        <ele>359.2</ele>
        <time>2012-03-28T14:43:05Z</time>
      </trkpt>
      <trkpt lat="43.55301" lon="5.58388">
        <ele>361.2</ele>
        <time>2012-03-28T14:43:11Z</time>
      </trkpt>
      <trkpt lat="43.55304" lon="5.58377">
        <ele>358.2</ele>
        <time>2012-03-28T14:43:17Z</time>
      </trkpt>
      <trkpt lat="43.55311" lon="5.58369">
        <ele>353.1</ele>
        <time>2012-03-28T14:43:25Z</time>
      </trkpt>
      <trkpt lat="43.55318" lon="5.58362">
        <ele>354.1</ele>
        <time>2012-03-28T14:43:32Z</time>
      </trkpt>
      <trkpt lat="43.55326" lon="5.58357">
        <ele>358.2</ele>
        <time>2012-03-28T14:43:40Z</time>
      </trkpt>
      <trkpt lat="43.55333" lon="5.58357">
        <ele>361.1</ele>
        <time>2012-03-28T14:43:49Z</time>
      </trkpt>
      <trkpt lat="43.55342" lon="5.58357">
        <ele>362.1</ele>
        <time>2012-03-28T14:43:57Z</time>
      </trkpt>
      <trkpt lat="43.5535" lon="5.58358">
        <ele>366.2</ele>
        <time>2012-03-28T14:44:05Z</time>
      </trkpt>
      <trkpt lat="43.55359" lon="5.58357">
        <ele>372.1</ele>
        <time>2012-03-28T14:44:14Z</time>
      </trkpt>
      <trkpt lat="43.55366" lon="5.5835">
        <ele>373.1</ele>
        <time>2012-03-28T14:44:21Z</time>
      </trkpt>
      <trkpt lat="43.55371" lon="5.58343">
        <ele>373.2</ele>
        <time>2012-03-28T14:44:29Z</time>
      </trkpt>
      <trkpt lat="43.55376" lon="5.58334">
        <ele>370.7</ele>
        <time>2012-03-28T14:44:36Z</time>
      </trkpt>
      <trkpt lat="43.55381" lon="5.58325">
        <ele>371.2</ele>
        <time>2012-03-28T14:44:44Z</time>
      </trkpt>
      <trkpt lat="43.5539" lon="5.58328">
        <ele>372.7</ele>
        <time>2012-03-28T14:45:10Z</time>
      </trkpt>
      <trkpt lat="43.55394" lon="5.58339">
        <ele>372</ele>
        <time>2012-03-28T14:45:22Z</time>
      </trkpt>
      <trkpt lat="43.55397" lon="5.5835">
        <ele>372.2</ele>
        <time>2012-03-28T14:45:31Z</time>
      </trkpt>
      <trkpt lat="43.55402" lon="5.5836">
        <ele>368.1</ele>
        <time>2012-03-28T14:45:43Z</time>
      </trkpt>
      <trkpt lat="43.55406" lon="5.58371">
        <ele>367.3</ele>
        <time>2012-03-28T14:45:53Z</time>
      </trkpt>
      <trkpt lat="43.55407" lon="5.58383">
        <ele>371.6</ele>
        <time>2012-03-28T14:46:01Z</time>
      </trkpt>
      <trkpt lat="43.5541" lon="5.58394">
        <ele>372.1</ele>
        <time>2012-03-28T14:46:10Z</time>
      </trkpt>
      <trkpt lat="43.55411" lon="5.58405">
        <ele>373.6</ele>
        <time>2012-03-28T14:46:18Z</time>
      </trkpt>
      <trkpt lat="43.55412" lon="5.58417">
        <ele>372.8</ele>
        <time>2012-03-28T14:46:27Z</time>
      </trkpt>
      <trkpt lat="43.55416" lon="5.58427">
        <ele>371.6</ele>
        <time>2012-03-28T14:46:34Z</time>
      </trkpt>
      <trkpt lat="43.55417" lon="5.58438">
        <ele>374.2</ele>
        <time>2012-03-28T14:46:41Z</time>
      </trkpt>
      <trkpt lat="43.55419" lon="5.5845">
        <ele>375.7</ele>
        <time>2012-03-28T14:46:50Z</time>
      </trkpt>
      <trkpt lat="43.5542" lon="5.58461">
        <ele>374.3</ele>
        <time>2012-03-28T14:46:59Z</time>
      </trkpt>
      <trkpt lat="43.55422" lon="5.58472">
        <ele>375.7</ele>
        <time>2012-03-28T14:47:08Z</time>
      </trkpt>
      <trkpt lat="43.55424" lon="5.58483">
        <ele>375</ele>
        <time>2012-03-28T14:47:17Z</time>
      </trkpt>
      <trkpt lat="43.55426" lon="5.58495">
        <ele>376.2</ele>
        <time>2012-03-28T14:47:26Z</time>
      </trkpt>
      <trkpt lat="43.55429" lon="5.58507">
        <ele>378.3</ele>
        <time>2012-03-28T14:47:35Z</time>
      </trkpt>
      <trkpt lat="43.55431" lon="5.58517">
        <ele>378.3</ele>
        <time>2012-03-28T14:47:46Z</time>
      </trkpt>
      <trkpt lat="43.55435" lon="5.58528">
        <ele>376.5</ele>
        <time>2012-03-28T14:47:54Z</time>
      </trkpt>
      <trkpt lat="43.55438" lon="5.58539">
        <ele>375.6</ele>
        <time>2012-03-28T14:48:03Z</time>
      </trkpt>
      <trkpt lat="43.55441" lon="5.5855">
        <ele>375.1</ele>
        <time>2012-03-28T14:48:11Z</time>
      </trkpt>
      <trkpt lat="43.55443" lon="5.58562">
        <ele>375.7</ele>
        <time>2012-03-28T14:48:20Z</time>
      </trkpt>
      <trkpt lat="43.55446" lon="5.58574">
        <ele>376</ele>
        <time>2012-03-28T14:48:30Z</time>
      </trkpt>
      <trkpt lat="43.55448" lon="5.58585">
        <ele>379.6</ele>
        <time>2012-03-28T14:48:38Z</time>
      </trkpt>
      <trkpt lat="43.5545" lon="5.58597">
        <ele>379.5</ele>
        <time>2012-03-28T14:48:47Z</time>
      </trkpt>
      <trkpt lat="43.55451" lon="5.58609">
        <ele>382.3</ele>
        <time>2012-03-28T14:48:57Z</time>
      </trkpt>
      <trkpt lat="43.55453" lon="5.5862">
        <ele>381.5</ele>
        <time>2012-03-28T14:49:06Z</time>
      </trkpt>
      <trkpt lat="43.55453" lon="5.58632">
        <ele>381.1</ele>
        <time>2012-03-28T14:49:14Z</time>
      </trkpt>
      <trkpt lat="43.55453" lon="5.58645">
        <ele>375.1</ele>
        <time>2012-03-28T14:49:25Z</time>
      </trkpt>
      <trkpt lat="43.55454" lon="5.58657">
        <ele>374.3</ele>
        <time>2012-03-28T14:49:33Z</time>
      </trkpt>
      <trkpt lat="43.55451" lon="5.58668">
        <ele>369.8</ele>
        <time>2012-03-28T14:49:43Z</time>
      </trkpt>
      <trkpt lat="43.55452" lon="5.58679">
        <ele>364.2</ele>
        <time>2012-03-28T14:49:52Z</time>
      </trkpt>
      <trkpt lat="43.55454" lon="5.58689">
        <ele>367.8</ele>
        <time>2012-03-28T14:49:57Z</time>
      </trkpt>
      <trkpt lat="43.55455" lon="5.58702">
        <ele>369.2</ele>
        <time>2012-03-28T14:50:03Z</time>
      </trkpt>
      <trkpt lat="43.55455" lon="5.58714">
        <ele>362.6</ele>
        <time>2012-03-28T14:50:14Z</time>
      </trkpt>
      <trkpt lat="43.55459" lon="5.58725">
        <ele>362.2</ele>
        <time>2012-03-28T14:50:24Z</time>
      </trkpt>
      <trkpt lat="43.5546" lon="5.58737">
        <ele>359.5</ele>
        <time>2012-03-28T14:50:34Z</time>
      </trkpt>
      <trkpt lat="43.55459" lon="5.58748">
        <ele>352.7</ele>
        <time>2012-03-28T14:50:44Z</time>
      </trkpt>
      <trkpt lat="43.55461" lon="5.58758">
        <ele>352.6</ele>
        <time>2012-03-28T14:50:51Z</time>
      </trkpt>
      <trkpt lat="43.55462" lon="5.5877">
        <ele>367.2</ele>
        <time>2012-03-28T14:50:59Z</time>
      </trkpt>
      <trkpt lat="43.55464" lon="5.58782">
        <ele>377.5</ele>
        <time>2012-03-28T14:51:06Z</time>
      </trkpt>
      <trkpt lat="43.55465" lon="5.58793">
        <ele>387.5</ele>
        <time>2012-03-28T14:51:14Z</time>
      </trkpt>
      <trkpt lat="43.55465" lon="5.58805">
        <ele>391.8</ele>
        <time>2012-03-28T14:51:23Z</time>
      </trkpt>
      <trkpt lat="43.55467" lon="5.58816">
        <ele>396.7</ele>
        <time>2012-03-28T14:51:32Z</time>
      </trkpt>
      <trkpt lat="43.55467" lon="5.58828">
        <ele>386.7</ele>
        <time>2012-03-28T14:51:39Z</time>
      </trkpt>
      <trkpt lat="43.5547" lon="5.58838">
        <ele>385.2</ele>
        <time>2012-03-28T14:51:46Z</time>
      </trkpt>
      <trkpt lat="43.55473" lon="5.58848">
        <ele>382</ele>
        <time>2012-03-28T14:51:52Z</time>
      </trkpt>
      <trkpt lat="43.55478" lon="5.58858">
        <ele>382.7</ele>
        <time>2012-03-28T14:51:59Z</time>
      </trkpt>
      <trkpt lat="43.5548" lon="5.58869">
        <ele>377.8</ele>
        <time>2012-03-28T14:52:06Z</time>
      </trkpt>
      <trkpt lat="43.55482" lon="5.5888">
        <ele>375.2</ele>
        <time>2012-03-28T14:52:13Z</time>
      </trkpt>
      <trkpt lat="43.55489" lon="5.58886">
        <ele>380.1</ele>
        <time>2012-03-28T14:52:21Z</time>
      </trkpt>
      <trkpt lat="43.55495" lon="5.58894">
        <ele>392.8</ele>
        <time>2012-03-28T14:52:30Z</time>
      </trkpt>
      <trkpt lat="43.55502" lon="5.58902">
        <ele>393.7</ele>
        <time>2012-03-28T14:52:37Z</time>
      </trkpt>
      <trkpt lat="43.55506" lon="5.58912">
        <ele>391.7</ele>
        <time>2012-03-28T14:52:43Z</time>
      </trkpt>
      <trkpt lat="43.5551" lon="5.58923">
        <ele>391.7</ele>
        <time>2012-03-28T14:52:50Z</time>
      </trkpt>
      <trkpt lat="43.55512" lon="5.58935">
        <ele>383.2</ele>
        <time>2012-03-28T14:52:57Z</time>
      </trkpt>
      <trkpt lat="43.55513" lon="5.58946">
        <ele>377.6</ele>
        <time>2012-03-28T14:53:03Z</time>
      </trkpt>
      <trkpt lat="43.55519" lon="5.58954">
        <ele>375.5</ele>
        <time>2012-03-28T14:53:11Z</time>
      </trkpt>
      <trkpt lat="43.55523" lon="5.58965">
        <ele>372.7</ele>
        <time>2012-03-28T14:53:19Z</time>
      </trkpt>
      <trkpt lat="43.55527" lon="5.58976">
        <ele>366.6</ele>
        <time>2012-03-28T14:53:27Z</time>
      </trkpt>
      <trkpt lat="43.55533" lon="5.58985">
        <ele>366.7</ele>
        <time>2012-03-28T14:53:36Z</time>
      </trkpt>
      <trkpt lat="43.55538" lon="5.58993">
        <ele>370.5</ele>
        <time>2012-03-28T14:53:45Z</time>
      </trkpt>
      <trkpt lat="43.55544" lon="5.59003">
        <ele>384.2</ele>
        <time>2012-03-28T14:53:51Z</time>
      </trkpt>
      <trkpt lat="43.5555" lon="5.5901">
        <ele>390</ele>
        <time>2012-03-28T14:53:58Z</time>
      </trkpt>
      <trkpt lat="43.55554" lon="5.5902">
        <ele>392.1</ele>
        <time>2012-03-28T14:54:05Z</time>
      </trkpt>
      <trkpt lat="43.55557" lon="5.59031">
        <ele>392.7</ele>
        <time>2012-03-28T14:54:14Z</time>
      </trkpt>
      <trkpt lat="43.55558" lon="5.59042">
        <ele>392.7</ele>
        <time>2012-03-28T14:54:22Z</time>
      </trkpt>
      <trkpt lat="43.55563" lon="5.59053">
        <ele>393.8</ele>
        <time>2012-03-28T14:54:31Z</time>
      </trkpt>
      <trkpt lat="43.55565" lon="5.59064">
        <ele>394.7</ele>
        <time>2012-03-28T14:54:39Z</time>
      </trkpt>
      <trkpt lat="43.55566" lon="5.59075">
        <ele>385.3</ele>
        <time>2012-03-28T14:54:46Z</time>
      </trkpt>
      <trkpt lat="43.55569" lon="5.59087">
        <ele>383.7</ele>
        <time>2012-03-28T14:54:54Z</time>
      </trkpt>
      <trkpt lat="43.5557" lon="5.59098">
        <ele>383</ele>
        <time>2012-03-28T14:55:01Z</time>
      </trkpt>
      <trkpt lat="43.55571" lon="5.5911">
        <ele>379</ele>
        <time>2012-03-28T14:55:11Z</time>
      </trkpt>
      <trkpt lat="43.5557" lon="5.59121">
        <ele>374.5</ele>
        <time>2012-03-28T14:55:18Z</time>
      </trkpt>
      <trkpt lat="43.55567" lon="5.59132">
        <ele>369.3</ele>
        <time>2012-03-28T14:55:24Z</time>
      </trkpt>
      <trkpt lat="43.55564" lon="5.59141">
        <ele>367.5</ele>
        <time>2012-03-28T14:55:30Z</time>
      </trkpt>
      <trkpt lat="43.55561" lon="5.59152">
        <ele>375.7</ele>
        <time>2012-03-28T14:55:35Z</time>
      </trkpt>
      <trkpt lat="43.55559" lon="5.59164">
        <ele>378.3</ele>
        <time>2012-03-28T14:55:42Z</time>
      </trkpt>
      <trkpt lat="43.55557" lon="5.59175">
        <ele>381.1</ele>
        <time>2012-03-28T14:55:49Z</time>
      </trkpt>
      <trkpt lat="43.55557" lon="5.59187">
        <ele>379.2</ele>
        <time>2012-03-28T14:55:56Z</time>
      </trkpt>
      <trkpt lat="43.55556" lon="5.59198">
        <ele>378.1</ele>
        <time>2012-03-28T14:56:03Z</time>
      </trkpt>
      <trkpt lat="43.55556" lon="5.5921">
        <ele>376.1</ele>
        <time>2012-03-28T14:56:10Z</time>
      </trkpt>
      <trkpt lat="43.55555" lon="5.59221">
        <ele>371.7</ele>
        <time>2012-03-28T14:56:16Z</time>
      </trkpt>
      <trkpt lat="43.55555" lon="5.59232">
        <ele>373</ele>
        <time>2012-03-28T14:56:23Z</time>
      </trkpt>
      <trkpt lat="43.55554" lon="5.59244">
        <ele>372.8</ele>
        <time>2012-03-28T14:56:30Z</time>
      </trkpt>
      <trkpt lat="43.55554" lon="5.59254">
        <ele>389.2</ele>
        <time>2012-03-28T14:56:39Z</time>
      </trkpt>
      <trkpt lat="43.55553" lon="5.59265">
        <ele>386.5</ele>
        <time>2012-03-28T14:56:46Z</time>
      </trkpt>
      <trkpt lat="43.55551" lon="5.59276">
        <ele>382.7</ele>
        <time>2012-03-28T14:56:53Z</time>
      </trkpt>
      <trkpt lat="43.5555" lon="5.59288">
        <ele>389.2</ele>
        <time>2012-03-28T14:57:00Z</time>
      </trkpt>
      <trkpt lat="43.55548" lon="5.59298">
        <ele>381.3</ele>
        <time>2012-03-28T14:57:09Z</time>
      </trkpt>
      <trkpt lat="43.55545" lon="5.5931">
        <ele>373.2</ele>
        <time>2012-03-28T14:57:19Z</time>
      </trkpt>
      <trkpt lat="43.55545" lon="5.59321">
        <ele>385.7</ele>
        <time>2012-03-28T14:57:26Z</time>
      </trkpt>
      <trkpt lat="43.55544" lon="5.59333">
        <ele>393.7</ele>
        <time>2012-03-28T14:57:35Z</time>
      </trkpt>
      <trkpt lat="43.55541" lon="5.59344">
        <ele>391.2</ele>
        <time>2012-03-28T14:57:45Z</time>
      </trkpt>
      <trkpt lat="43.55538" lon="5.59355">
        <ele>386.8</ele>
        <time>2012-03-28T14:57:54Z</time>
      </trkpt>
      <trkpt lat="43.55536" lon="5.59367">
        <ele>396.5</ele>
        <time>2012-03-28T14:58:03Z</time>
      </trkpt>
      <trkpt lat="43.55534" lon="5.59378">
        <ele>400.1</ele>
        <time>2012-03-28T14:58:13Z</time>
      </trkpt>
      <trkpt lat="43.55533" lon="5.59389">
        <ele>406.1</ele>
        <time>2012-03-28T14:58:21Z</time>
      </trkpt>
      <trkpt lat="43.55531" lon="5.594">
        <ele>406.2</ele>
        <time>2012-03-28T14:58:30Z</time>
      </trkpt>
      <trkpt lat="43.55527" lon="5.59411">
        <ele>403</ele>
        <time>2012-03-28T14:58:37Z</time>
      </trkpt>
      <trkpt lat="43.55523" lon="5.59422">
        <ele>397.7</ele>
        <time>2012-03-28T14:58:43Z</time>
      </trkpt>
      <trkpt lat="43.55519" lon="5.59433">
        <ele>396.7</ele>
        <time>2012-03-28T14:58:55Z</time>
      </trkpt>
      <trkpt lat="43.55518" lon="5.59445">
        <ele>399.1</ele>
        <time>2012-03-28T14:59:08Z</time>
      </trkpt>
      <trkpt lat="43.55515" lon="5.59456">
        <ele>407</ele>
        <time>2012-03-28T14:59:16Z</time>
      </trkpt>
      <trkpt lat="43.55513" lon="5.59466">
        <ele>400.2</ele>
        <time>2012-03-28T14:59:24Z</time>
      </trkpt>
      <trkpt lat="43.5551" lon="5.59477">
        <ele>398.8</ele>
        <time>2012-03-28T14:59:32Z</time>
      </trkpt>
      <trkpt lat="43.55507" lon="5.59489">
        <ele>395.2</ele>
        <time>2012-03-28T14:59:39Z</time>
      </trkpt>
      <trkpt lat="43.55504" lon="5.595">
        <ele>401.7</ele>
        <time>2012-03-28T14:59:46Z</time>
      </trkpt>
      <trkpt lat="43.55501" lon="5.59511">
        <ele>403.8</ele>
        <time>2012-03-28T14:59:55Z</time>
      </trkpt>
      <trkpt lat="43.55498" lon="5.59522">
        <ele>404</ele>
        <time>2012-03-28T15:00:04Z</time>
      </trkpt>
      <trkpt lat="43.55495" lon="5.59533">
        <ele>407.2</ele>
        <time>2012-03-28T15:00:13Z</time>
      </trkpt>
      <trkpt lat="43.55493" lon="5.59544">
        <ele>408.5</ele>
        <time>2012-03-28T15:00:21Z</time>
      </trkpt>
      <trkpt lat="43.55491" lon="5.59556">
        <ele>409.7</ele>
        <time>2012-03-28T15:00:28Z</time>
      </trkpt>
      <trkpt lat="43.5549" lon="5.59568">
        <ele>412.1</ele>
        <time>2012-03-28T15:00:37Z</time>
      </trkpt>
      <trkpt lat="43.55491" lon="5.5958">
        <ele>411</ele>
        <time>2012-03-28T15:00:49Z</time>
      </trkpt>
      <trkpt lat="43.5549" lon="5.59592">
        <ele>419.5</ele>
        <time>2012-03-28T15:01:03Z</time>
      </trkpt>
      <trkpt lat="43.55492" lon="5.59603">
        <ele>416.7</ele>
        <time>2012-03-28T15:01:12Z</time>
      </trkpt>
      <trkpt lat="43.55494" lon="5.59614">
        <ele>409.6</ele>
        <time>2012-03-28T15:01:20Z</time>
      </trkpt>
      <trkpt lat="43.55493" lon="5.59625">
        <ele>407.5</ele>
        <time>2012-03-28T15:01:27Z</time>
      </trkpt>
      <trkpt lat="43.55492" lon="5.59637">
        <ele>408.2</ele>
        <time>2012-03-28T15:01:34Z</time>
      </trkpt>
      <trkpt lat="43.5549" lon="5.59649">
        <ele>409.6</ele>
        <time>2012-03-28T15:01:41Z</time>
      </trkpt>
      <trkpt lat="43.55489" lon="5.59659">
        <ele>406.2</ele>
        <time>2012-03-28T15:01:47Z</time>
      </trkpt>
      <trkpt lat="43.55488" lon="5.59671">
        <ele>406.7</ele>
        <time>2012-03-28T15:01:55Z</time>
      </trkpt>
      <trkpt lat="43.55485" lon="5.59683">
        <ele>413.3</ele>
        <time>2012-03-28T15:02:06Z</time>
      </trkpt>
      <trkpt lat="43.55484" lon="5.59694">
        <ele>422.1</ele>
        <time>2012-03-28T15:02:21Z</time>
      </trkpt>
      <trkpt lat="43.55485" lon="5.59705">
        <ele>420.5</ele>
        <time>2012-03-28T15:02:29Z</time>
      </trkpt>
      <trkpt lat="43.55489" lon="5.59716">
        <ele>425.2</ele>
        <time>2012-03-28T15:02:38Z</time>
      </trkpt>
      <trkpt lat="43.55491" lon="5.59726">
        <ele>425.3</ele>
        <time>2012-03-28T15:02:45Z</time>
      </trkpt>
      <trkpt lat="43.55491" lon="5.59738">
        <ele>425.3</ele>
        <time>2012-03-28T15:02:52Z</time>
      </trkpt>
      <trkpt lat="43.55492" lon="5.59749">
        <ele>423.7</ele>
        <time>2012-03-28T15:03:00Z</time>
      </trkpt>
      <trkpt lat="43.55495" lon="5.59759">
        <ele>427</ele>
        <time>2012-03-28T15:03:08Z</time>
      </trkpt>
      <trkpt lat="43.55496" lon="5.59772">
        <ele>424</ele>
        <time>2012-03-28T15:03:15Z</time>
      </trkpt>
      <trkpt lat="43.55497" lon="5.59783">
        <ele>421.6</ele>
        <time>2012-03-28T15:03:23Z</time>
      </trkpt>
      <trkpt lat="43.55498" lon="5.59794">
        <ele>418.2</ele>
        <time>2012-03-28T15:03:30Z</time>
      </trkpt>
      <trkpt lat="43.555" lon="5.59806">
        <ele>418.2</ele>
        <time>2012-03-28T15:03:38Z</time>
      </trkpt>
      <trkpt lat="43.55502" lon="5.59817">
        <ele>417.3</ele>
        <time>2012-03-28T15:03:44Z</time>
      </trkpt>
      <trkpt lat="43.55504" lon="5.59828">
        <ele>420.2</ele>
        <time>2012-03-28T15:03:51Z</time>
      </trkpt>
      <trkpt lat="43.55508" lon="5.59839">
        <ele>429.2</ele>
        <time>2012-03-28T15:03:58Z</time>
      </trkpt>
      <trkpt lat="43.55511" lon="5.5985">
        <ele>430.7</ele>
        <time>2012-03-28T15:04:06Z</time>
      </trkpt>
      <trkpt lat="43.55513" lon="5.59861">
        <ele>430.6</ele>
        <time>2012-03-28T15:04:13Z</time>
      </trkpt>
      <trkpt lat="43.55515" lon="5.59872">
        <ele>427.5</ele>
        <time>2012-03-28T15:04:20Z</time>
      </trkpt>
      <trkpt lat="43.55518" lon="5.59882">
        <ele>424.7</ele>
        <time>2012-03-28T15:04:27Z</time>
      </trkpt>
      <trkpt lat="43.55523" lon="5.5989">
        <ele>427.2</ele>
        <time>2012-03-28T15:04:34Z</time>
      </trkpt>
      <trkpt lat="43.55524" lon="5.59902">
        <ele>424.7</ele>
        <time>2012-03-28T15:04:43Z</time>
      </trkpt>
      <trkpt lat="43.55525" lon="5.59913">
        <ele>417.7</ele>
        <time>2012-03-28T15:04:51Z</time>
      </trkpt>
      <trkpt lat="43.55526" lon="5.59924">
        <ele>424.1</ele>
        <time>2012-03-28T15:04:58Z</time>
      </trkpt>
      <trkpt lat="43.55529" lon="5.59934">
        <ele>429.7</ele>
        <time>2012-03-28T15:05:03Z</time>
      </trkpt>
      <trkpt lat="43.5553" lon="5.59945">
        <ele>432.2</ele>
        <time>2012-03-28T15:05:08Z</time>
      </trkpt>
      <trkpt lat="43.55531" lon="5.59955">
        <ele>434.2</ele>
        <time>2012-03-28T15:05:14Z</time>
      </trkpt>
      <trkpt lat="43.55534" lon="5.59965">
        <ele>437.1</ele>
        <time>2012-03-28T15:05:20Z</time>
      </trkpt>
      <trkpt lat="43.55537" lon="5.59975">
        <ele>435.5</ele>
        <time>2012-03-28T15:05:27Z</time>
      </trkpt>
      <trkpt lat="43.55538" lon="5.59988">
        <ele>431.2</ele>
        <time>2012-03-28T15:05:36Z</time>
      </trkpt>
      <trkpt lat="43.55537" lon="5.59999">
        <ele>424.3</ele>
        <time>2012-03-28T15:05:43Z</time>
      </trkpt>
      <trkpt lat="43.55537" lon="5.6001">
        <ele>424.7</ele>
        <time>2012-03-28T15:05:50Z</time>
      </trkpt>
      <trkpt lat="43.55537" lon="5.60022">
        <ele>428.2</ele>
        <time>2012-03-28T15:06:00Z</time>
      </trkpt>
      <trkpt lat="43.55537" lon="5.60034">
        <ele>428.2</ele>
        <time>2012-03-28T15:06:08Z</time>
      </trkpt>
      <trkpt lat="43.55538" lon="5.60045">
        <ele>424.2</ele>
        <time>2012-03-28T15:06:15Z</time>
      </trkpt>
      <trkpt lat="43.55539" lon="5.60055">
        <ele>422.6</ele>
        <time>2012-03-28T15:06:21Z</time>
      </trkpt>
      <trkpt lat="43.55541" lon="5.60066">
        <ele>431.8</ele>
        <time>2012-03-28T15:06:28Z</time>
      </trkpt>
      <trkpt lat="43.5554" lon="5.60077">
        <ele>433.2</ele>
        <time>2012-03-28T15:06:35Z</time>
      </trkpt>
      <trkpt lat="43.55535" lon="5.60087">
        <ele>430.3</ele>
        <time>2012-03-28T15:06:42Z</time>
      </trkpt>
      <trkpt lat="43.5553" lon="5.60098">
        <ele>437.6</ele>
        <time>2012-03-28T15:06:51Z</time>
      </trkpt>
      <trkpt lat="43.55528" lon="5.60108">
        <ele>438</ele>
        <time>2012-03-28T15:07:00Z</time>
      </trkpt>
      <trkpt lat="43.55525" lon="5.60119">
        <ele>435.2</ele>
        <time>2012-03-28T15:07:06Z</time>
      </trkpt>
      <trkpt lat="43.55526" lon="5.60131">
        <ele>433.5</ele>
        <time>2012-03-28T15:07:13Z</time>
      </trkpt>
      <trkpt lat="43.55529" lon="5.60141">
        <ele>438.3</ele>
        <time>2012-03-28T15:07:21Z</time>
      </trkpt>
      <trkpt lat="43.55531" lon="5.60152">
        <ele>441.2</ele>
        <time>2012-03-28T15:07:28Z</time>
      </trkpt>
      <trkpt lat="43.5553" lon="5.60163">
        <ele>437.6</ele>
        <time>2012-03-28T15:07:33Z</time>
      </trkpt>
      <trkpt lat="43.5553" lon="5.60175">
        <ele>432.2</ele>
        <time>2012-03-28T15:07:39Z</time>
      </trkpt>
      <trkpt lat="43.55529" lon="5.60187">
        <ele>426.7</ele>
        <time>2012-03-28T15:07:46Z</time>
      </trkpt>
      <trkpt lat="43.55529" lon="5.602">
        <ele>421.5</ele>
        <time>2012-03-28T15:07:53Z</time>
      </trkpt>
      <trkpt lat="43.55528" lon="5.60211">
        <ele>419.7</ele>
        <time>2012-03-28T15:07:59Z</time>
      </trkpt>
      <trkpt lat="43.55529" lon="5.60222">
        <ele>421.5</ele>
        <time>2012-03-28T15:08:05Z</time>
      </trkpt>
      <trkpt lat="43.55531" lon="5.60234">
        <ele>425.2</ele>
        <time>2012-03-28T15:08:13Z</time>
      </trkpt>
      <trkpt lat="43.55533" lon="5.60245">
        <ele>428.7</ele>
        <time>2012-03-28T15:08:21Z</time>
      </trkpt>
      <trkpt lat="43.55533" lon="5.60257">
        <ele>429.3</ele>
        <time>2012-03-28T15:08:29Z</time>
      </trkpt>
      <trkpt lat="43.55531" lon="5.60268">
        <ele>427.5</ele>
        <time>2012-03-28T15:08:35Z</time>
      </trkpt>
      <trkpt lat="43.5553" lon="5.6028">
        <ele>427.2</ele>
        <time>2012-03-28T15:08:41Z</time>
      </trkpt>
      <trkpt lat="43.5553" lon="5.60292">
        <ele>427.2</ele>
        <time>2012-03-28T15:08:46Z</time>
      </trkpt>
      <trkpt lat="43.55529" lon="5.60305">
        <ele>428.8</ele>
        <time>2012-03-28T15:08:53Z</time>
      </trkpt>
      <trkpt lat="43.55524" lon="5.60314">
        <ele>431.2</ele>
        <time>2012-03-28T15:09:00Z</time>
      </trkpt>
      <trkpt lat="43.55521" lon="5.60324">
        <ele>428.5</ele>
        <time>2012-03-28T15:09:07Z</time>
      </trkpt>
      <trkpt lat="43.55517" lon="5.60334">
        <ele>428.8</ele>
        <time>2012-03-28T15:09:15Z</time>
      </trkpt>
      <trkpt lat="43.55514" lon="5.60344">
        <ele>435.1</ele>
        <time>2012-03-28T15:09:23Z</time>
      </trkpt>
      <trkpt lat="43.55509" lon="5.60353">
        <ele>439.2</ele>
        <time>2012-03-28T15:09:30Z</time>
      </trkpt>
      <trkpt lat="43.55505" lon="5.60362">
        <ele>441.6</ele>
        <time>2012-03-28T15:09:34Z</time>
      </trkpt>
      <trkpt lat="43.55501" lon="5.60372">
        <ele>437.1</ele>
        <time>2012-03-28T15:09:41Z</time>
      </trkpt>
      <trkpt lat="43.555" lon="5.60382">
        <ele>428.7</ele>
        <time>2012-03-28T15:09:46Z</time>
      </trkpt>
      <trkpt lat="43.55502" lon="5.60394">
        <ele>424.7</ele>
        <time>2012-03-28T15:09:52Z</time>
      </trkpt>
      <trkpt lat="43.55498" lon="5.60403">
        <ele>419.8</ele>
        <time>2012-03-28T15:09:58Z</time>
      </trkpt>
      <trkpt lat="43.555" lon="5.60415">
        <ele>425.5</ele>
        <time>2012-03-28T15:10:04Z</time>
      </trkpt>
      <trkpt lat="43.55502" lon="5.60426">
        <ele>428.2</ele>
        <time>2012-03-28T15:10:09Z</time>
      </trkpt>
      <trkpt lat="43.55502" lon="5.60437">
        <ele>424.2</ele>
        <time>2012-03-28T15:10:14Z</time>
      </trkpt>
      <trkpt lat="43.55502" lon="5.60449">
        <ele>419.2</ele>
        <time>2012-03-28T15:10:21Z</time>
      </trkpt>
      <trkpt lat="43.55503" lon="5.60462">
        <ele>412.3</ele>
        <time>2012-03-28T15:10:29Z</time>
      </trkpt>
      <trkpt lat="43.55506" lon="5.60473">
        <ele>411</ele>
        <time>2012-03-28T15:10:38Z</time>
      </trkpt>
      <trkpt lat="43.55509" lon="5.60484">
        <ele>413.3</ele>
        <time>2012-03-28T15:10:45Z</time>
      </trkpt>
      <trkpt lat="43.5551" lon="5.60496">
        <ele>417.2</ele>
        <time>2012-03-28T15:10:52Z</time>
      </trkpt>
      <trkpt lat="43.55506" lon="5.60507">
        <ele>418.7</ele>
        <time>2012-03-28T15:10:59Z</time>
      </trkpt>
      <trkpt lat="43.55503" lon="5.60517">
        <ele>419.6</ele>
        <time>2012-03-28T15:11:04Z</time>
      </trkpt>
      <trkpt lat="43.55503" lon="5.60517">
        <ele>419.6</ele>
        <time>2012-03-28T15:11:04Z</time>
      </trkpt>
    </trkseg>
  </trk>
</gpx>